Time;durP1;ratioP1;P1;durP2;ratioP2;P2;SDS_P1;SDS_P2;PMS_P1;PMS_P2;Temp;Humidity;BMP_temperature;BMP_pressure;BME280_temperature;BME280_humidity;BME280_pressure;Samples;Min_cycle;Max_cycle;Signal;HPM_P1;HPM_P2
2023/02/14 00:00:20;;;;;;;12.20;6.77;;;;;;;3.52;100.00;102950.81;5039172;28;20214;-75
2023/02/14 00:02:47;;;;;;;11.50;6.70;;;;;;;3.49;100.00;102946.38;5023630;28;20579;-75
2023/02/14 00:05:15;;;;;;;10.77;5.63;;;;;;;3.46;100.00;102947.97;5044604;28;20195;-75
2023/02/14 00:07:42;;;;;;;11.63;5.93;;;;;;;3.43;100.00;102948.72;5032741;28;20223;-76
2023/02/14 00:10:09;;;;;;;10.00;5.33;;;;;;;3.41;100.00;102948.66;5034545;28;20196;-75
2023/02/14 00:12:35;;;;;;;10.77;6.00;;;;;;;3.40;100.00;102946.03;5045589;28;20289;-76
2023/02/14 00:17:46;;;;;;;11.33;5.90;;;;;;;3.38;100.00;102945.94;5034331;28;20306;-74
2023/02/14 00:20:14;;;;;;;11.23;5.93;;;;;;;3.36;100.00;102946.69;5023614;28;20258;-75
2023/02/14 00:22:40;;;;;;;11.87;6.43;;;;;;;3.34;100.00;102946.66;5036584;28;20203;-76
2023/02/14 00:25:07;;;;;;;10.50;6.17;;;;;;;3.34;100.00;102944.09;5017716;28;20695;-75
2023/02/14 00:27:34;;;;;;;13.60;6.37;;;;;;;3.34;100.00;102954.41;5051852;23;20602;-75
2023/02/14 00:30:02;;;;;;;10.10;5.33;;;;;;;3.32;100.00;102937.94;5035186;28;20610;-78
2023/02/14 00:32:28;;;;;;;11.47;5.83;;;;;;;3.33;100.00;102938.84;5044854;28;20670;-77
2023/02/14 00:34:55;;;;;;;12.30;6.73;;;;;;;3.34;100.00;102940.59;5061101;28;20222;-77
2023/02/14 00:37:24;;;;;;;12.43;5.87;;;;;;;3.32;100.00;102947.41;5041562;28;20220;-76
2023/02/14 00:39:52;;;;;;;12.67;5.87;;;;;;;3.32;100.00;102949.97;5023518;28;20200;-76
2023/02/14 00:42:19;;;;;;;15.97;6.80;;;;;;;3.30;100.00;102949.91;5036890;28;20238;-77
2023/02/14 00:44:45;;;;;;;15.27;6.30;;;;;;;3.31;100.00;102948.22;5031272;28;20884;-77
2023/02/14 00:47:12;;;;;;;12.63;6.43;;;;;;;3.30;100.00;102964.50;5023930;28;20576;-77
2023/02/14 00:49:38;;;;;;;10.57;6.63;;;;;;;3.29;100.00;102950.75;5021404;28;20277;-78
2023/02/14 00:52:05;;;;;;;11.80;6.40;;;;;;;3.28;100.00;102953.25;5018896;28;20207;-77
2023/02/14 00:54:51;;;;;;;12.17;6.37;;;;;;;3.27;100.00;102948.91;5035125;28;20694;-78
2023/02/14 00:57:17;;;;;;;12.00;6.57;;;;;;;3.25;100.00;102951.41;5040329;28;20329;-77
2023/02/14 00:59:44;;;;;;;14.57;6.63;;;;;;;3.23;100.00;102947.91;5025154;28;20200;-77
2023/02/14 01:02:10;;;;;;;11.07;6.17;;;;;;;3.21;100.00;102942.69;5026391;28;20199;-80
2023/02/14 01:04:36;;;;;;;13.00;6.73;;;;;;;3.21;100.00;102946.97;5022356;28;20202;-78
2023/02/14 01:07:03;;;;;;;11.73;6.43;;;;;;;3.20;100.00;102943.50;5022674;28;20230;-77
2023/02/14 01:09:30;;;;;;;9.90;6.10;;;;;;;3.21;100.00;102941.81;5022320;28;20199;-76
2023/02/14 01:11:57;;;;;;;13.60;5.90;;;;;;;3.22;100.00;102938.41;5042708;28;20277;-77
2023/02/14 01:14:24;;;;;;;12.20;6.53;;;;;;;3.21;100.00;102940.09;5033650;28;20958;-75
2023/02/14 01:16:51;;;;;;;14.80;6.80;;;;;;;3.20;100.00;102938.34;5034542;28;20256;-78
2023/02/14 01:19:17;;;;;;;13.53;6.73;;;;;;;3.20;100.00;102940.94;5031159;28;20228;-77
2023/02/14 01:21:43;;;;;;;12.87;6.33;;;;;;;3.18;100.00;102933.94;5044904;28;20275;-76
2023/02/14 01:24:12;;;;;;;13.67;7.07;;;;;;;3.18;100.00;102928.78;5044132;28;20195;-76
2023/02/14 01:26:39;;;;;;;14.70;6.47;;;;;;;3.16;100.00;102931.28;5022471;28;20211;-77
2023/02/14 01:29:07;;;;;;;10.77;6.33;;;;;;;3.15;100.00;102926.97;5041424;28;20204;-77
2023/02/14 01:31:35;;;;;;;12.37;6.47;;;;;;;3.14;100.00;102924.31;5041252;28;20200;-77
2023/02/14 01:34:04;;;;;;;12.80;6.00;;;;;;;3.14;100.00;102924.31;5029885;28;20213;-76
2023/02/14 01:36:33;;;;;;;13.13;6.33;;;;;;;3.12;100.00;102923.38;5032309;28;20196;-78
2023/02/14 01:39:02;;;;;;;9.50;6.03;;;;;;;3.10;100.00;102922.44;5029314;28;20203;-77
2023/02/14 01:41:31;;;;;;;15.33;6.90;;;;;;;3.09;100.00;102921.53;5031526;28;20718;-78
2023/02/14 01:44:00;;;;;;;14.67;6.43;;;;;;;3.06;100.00;102924.03;5043630;28;20652;-76
2023/02/14 01:46:31;;;;;;;11.83;6.50;;;;;;;3.06;100.00;102912.81;5052539;28;20265;-80
2023/02/14 01:49:03;;;;;;;11.47;5.93;;;;;;;3.04;100.00;102915.31;5023038;28;20215;-79
2023/02/14 01:51:31;;;;;;;12.03;6.80;;;;;;;3.02;100.00;102909.22;5044495;28;20786;-78
2023/02/14 01:53:59;;;;;;;13.23;6.40;;;;;;;3.01;100.00;102910.06;5027633;28;20208;-76
2023/02/14 01:56:30;;;;;;;13.57;6.00;;;;;;;3.02;100.00;102906.66;5045164;28;20706;-77
2023/02/14 01:59:00;;;;;;;11.93;6.20;;;;;;;3.01;100.00;102905.78;5024455;28;20656;-76
2023/02/14 02:01:29;;;;;;;12.23;6.50;;;;;;;3.01;100.00;102910.06;5021679;28;20209;-78
2023/02/14 02:03:58;;;;;;;12.37;6.60;;;;;;;3.02;100.00;102904.06;5025038;28;20214;-76
2023/02/14 02:06:29;;;;;;;11.77;6.70;;;;;;;3.01;100.00;102905.78;5025121;28;20222;-77
2023/02/14 02:09:05;;;;;;;11.80;6.63;;;;;;;2.99;100.00;102904.84;5045559;28;20203;-76
2023/02/14 02:11:31;;;;;;;14.27;7.17;;;;;;;2.99;100.00;102907.41;5042225;28;20199;-76
2023/02/14 02:13:58;;;;;;;14.07;7.40;;;;;;;3.00;100.00;102908.28;5025632;28;20200;-76
2023/02/14 02:16:45;;;;;;;13.57;6.47;;;;;;;2.97;100.00;102913.31;5025871;28;20229;-78
2023/02/14 02:19:53;;;;;;;10.80;6.63;;;;;;;2.97;100.00;102910.72;5024970;28;20195;-77
2023/02/14 02:22:44;;;;;;;13.23;6.00;;;;;;;2.95;100.00;102907.22;5005364;28;20215;-76
2023/02/14 02:25:30;;;;;;;13.10;6.67;;;;;;;2.92;100.00;102909.66;5033311;28;20275;-76
2023/02/14 02:28:21;;;;;;;17.83;7.30;;;;;;;2.90;100.00;102901.84;5040530;28;20227;-79
2023/02/14 02:31:20;;;;;;;12.77;6.60;;;;;;;2.93;100.00;102911.44;5027062;28;20203;-78
2023/02/14 02:34:24;;;;;;;16.87;7.13;;;;;;;2.92;100.00;102907.06;5011295;28;20902;-76
2023/02/14 02:37:02;;;;;;;16.37;7.27;;;;;;;2.94;100.00;102902.88;5018684;28;20225;-76
2023/02/14 02:39:42;;;;;;;17.53;8.03;;;;;;;2.95;100.00;102897.78;5034864;28;20204;-79
2023/02/14 02:42:22;;;;;;;19.53;7.40;;;;;;;2.95;100.00;102900.34;5044221;28;20453;-76
2023/02/14 02:44:56;;;;;;;17.47;8.60;;;;;;;2.95;100.00;102900.34;5037857;28;20257;-78
2023/02/14 02:47:30;;;;;;;15.30;7.67;;;;;;;2.95;100.00;102900.34;5048228;28;20323;-76
2023/02/14 02:53:05;;;;;;;16.43;7.83;;;;;;;2.93;100.00;102903.69;5021362;28;20785;-76
2023/02/14 02:58:35;;;;;;;22.00;9.53;;;;;;;2.90;100.00;102911.28;5023587;28;20475;-76
2023/02/14 03:01:06;;;;;;;15.53;8.30;;;;;;;2.88;100.00;102912.94;5019764;28;20210;-77
2023/02/14 03:06:18;;;;;;;20.63;8.70;;;;;;;2.86;100.00;102910.28;5025665;28;20697;-80
2023/02/14 03:08:46;;;;;;;16.10;8.57;;;;;;;2.88;100.00;102916.38;5045030;28;20223;-79
2023/02/14 03:11:14;;;;;;;16.33;7.73;;;;;;;2.90;100.00;102913.88;5027535;28;20195;-77
2023/02/14 03:14:12;;;;;;;19.73;8.37;;;;;;;2.90;100.00;102921.59;5031378;28;20294;-76
2023/02/14 03:16:55;;;;;;;16.27;8.07;;;;;;;2.92;100.00;102919.97;5033227;28;20235;-76
2023/02/14 03:19:33;;;;;;;22.50;9.57;;;;;;;2.92;100.00;102920.88;5054435;28;20545;-76
2023/02/14 03:22:07;;;;;;;17.77;8.80;;;;;;;2.93;100.00;102922.59;5044261;28;20197;-76
2023/02/14 03:24:46;;;;;;;20.90;8.73;;;;;;;2.92;100.00;102914.81;5024636;28;20226;-76
2023/02/14 03:27:18;;;;;;;17.00;9.27;;;;;;;2.91;100.00;102918.22;5016793;28;20643;-78
2023/02/14 03:29:56;;;;;;;18.00;8.43;;;;;;;2.91;100.00;102916.50;5026622;28;20198;-80
2023/02/14 03:32:33;;;;;;;17.13;8.57;;;;;;;2.89;100.00;102915.56;5036633;28;20203;-77
2023/02/14 03:35:10;;;;;;;20.90;9.03;;;;;;;2.88;100.00;102915.50;5033102;28;20740;-76
2023/02/14 03:37:42;;;;;;;16.57;9.10;;;;;;;2.88;100.00;102918.09;5023860;28;20798;-76
2023/02/14 03:40:15;;;;;;;20.67;9.90;;;;;;;2.87;100.00;102914.63;5022293;28;20567;-76
2023/02/14 03:42:46;;;;;;;18.37;8.73;;;;;;;2.87;100.00;102917.22;5025417;28;21862;-77
2023/02/14 03:45:20;;;;;;;18.93;10.10;;;;;;;2.87;100.00;102913.72;5022375;28;20207;-76
2023/02/14 03:47:50;;;;;;;22.83;10.10;;;;;;;2.84;100.00;102917.94;5044064;28;20221;-77
2023/02/14 03:50:18;;;;;;;16.77;9.00;;;;;;;2.83;100.00;102920.44;5044448;28;20278;-77
2023/02/14 03:52:49;;;;;;;17.33;8.67;;;;;;;2.81;100.00;102914.34;5022547;28;20195;-78
2023/02/14 03:55:22;;;;;;;18.10;8.83;;;;;;;2.79;100.00;102909.13;5026529;28;20582;-76
2023/02/14 03:57:55;;;;;;;18.03;8.53;;;;;;;2.79;100.00;102913.41;5025555;28;20230;-79
2023/02/14 04:00:22;;;;;;;19.40;8.67;;;;;;;2.77;100.00;102913.34;5036858;28;20620;-76
2023/02/14 04:02:54;;;;;;;16.27;8.40;;;;;;;2.74;100.00;102920.94;5044683;28;20203;-77
2023/02/14 04:05:24;;;;;;;17.13;8.20;;;;;;;2.73;100.00;102916.63;5033810;28;20192;-76
2023/02/14 04:07:53;;;;;;;16.63;8.17;;;;;;;2.73;100.00;102916.63;5035086;28;20218;-76
2023/02/14 04:10:21;;;;;;;16.27;7.83;;;;;;;2.72;100.00;102919.13;5034108;28;20207;-76
2023/02/14 04:12:48;;;;;;;19.57;8.67;;;;;;;2.72;100.00;102921.69;5019286;28;20207;-76
2023/02/14 04:15:15;;;;;;;17.23;8.83;;;;;;;2.70;100.00;102913.91;5021420;28;20219;-76
2023/02/14 04:20:23;;;;;;;15.70;8.47;;;;;;;2.69;100.00;102917.31;5004091;28;20203;-76
2023/02/14 04:22:50;;;;;;;22.27;9.50;;;;;;;2.70;100.00;102916.47;5025431;28;20195;-78
2023/02/14 04:25:17;;;;;;;19.93;10.10;;;;;;;2.70;100.00;102906.19;5025169;28;20195;-76
2023/02/14 04:27:44;;;;;;;17.27;9.00;;;;;;;2.69;100.00;102907.00;5012512;28;20235;-76
2023/02/14 04:30:12;;;;;;;17.30;8.23;;;;;;;2.68;100.00;102904.38;5034069;28;20211;-78
2023/02/14 04:32:40;;;;;;;19.23;9.23;;;;;;;2.66;100.00;102901.72;5025469;28;20771;-76
2023/02/14 04:35:07;;;;;;;17.13;9.13;;;;;;;2.66;100.00;102899.13;5043059;28;20265;-78
2023/02/14 04:37:34;;;;;;;19.67;9.33;;;;;;;2.66;100.00;102901.72;5039619;28;20715;-78
2023/02/14 04:40:00;;;;;;;21.50;9.90;;;;;;;2.65;100.00;102900.81;5036398;28;20200;-77
2023/02/14 04:42:28;;;;;;;18.43;9.23;;;;;;;2.62;100.00;102895.56;5021964;28;20191;-76
2023/02/14 04:44:55;;;;;;;17.50;7.90;;;;;;;2.61;100.00;102892.91;5038224;28;20199;-81
2023/02/14 04:47:22;;;;;;;16.93;8.40;;;;;;;2.60;100.00;102885.97;5047512;28;20863;-76
2023/02/14 04:49:48;;;;;;;18.90;8.63;;;;;;;2.59;100.00;102881.66;5017830;28;20196;-79
2023/02/14 04:52:15;;;;;;;17.27;8.63;;;;;;;2.60;100.00;102878.25;5033312;28;20193;-76
2023/02/14 04:54:41;;;;;;;18.53;9.43;;;;;;;2.59;100.00;102879.09;5034350;28;20192;-76
2023/02/14 04:57:08;;;;;;;21.17;9.13;;;;;;;2.58;100.00;102875.59;5038112;28;20739;-76
2023/02/14 04:59:34;;;;;;;17.97;8.90;;;;;;;2.60;100.00;102873.09;5038348;28;20211;-76
2023/02/14 05:02:02;;;;;;;15.37;8.00;;;;;;;2.59;100.00;102879.09;5020209;28;20207;-77
2023/02/14 05:04:29;;;;;;;15.53;7.73;;;;;;;2.57;100.00;102872.97;5040711;28;20678;-79
2023/02/14 05:06:55;;;;;;;17.57;9.17;;;;;;;2.56;100.00;102874.66;5016911;28;20747;-77
2023/02/14 05:09:21;;;;;;;14.17;7.90;;;;;;;2.54;100.00;102870.28;5018238;28;20248;-76
2023/02/14 05:11:48;;;;;;;16.50;8.07;;;;;;;2.52;100.00;102869.34;5039698;28;20195;-76
2023/02/14 05:14:14;;;;;;;14.97;7.33;;;;;;;2.51;100.00;102870.16;5034777;28;20207;-76
2023/02/14 05:16:41;;;;;;;17.50;7.93;;;;;;;2.50;100.00;102871.84;5042169;28;20466;-79
2023/02/14 05:19:09;;;;;;;15.73;8.80;;;;;;;2.52;100.00;102864.19;5036764;28;20229;-78
2023/02/14 05:21:35;;;;;;;19.33;9.00;;;;;;;2.53;100.00;102863.34;5027491;28;20636;-79
2023/02/14 05:24:02;;;;;;;17.20;9.30;;;;;;;2.54;100.00;102870.28;5039950;28;20498;-77
2023/02/14 05:26:28;;;;;;;17.70;8.30;;;;;;;2.52;100.00;102864.19;5041399;28;20284;-77
2023/02/14 05:28:55;;;;;;;17.90;9.60;;;;;;;2.52;100.00;102864.19;5038320;28;20221;-76
2023/02/14 05:31:21;;;;;;;17.47;9.00;;;;;;;2.51;100.00;102863.28;5023817;28;20203;-77
2023/02/14 05:33:47;;;;;;;18.70;9.73;;;;;;;2.51;100.00;102865.88;5035119;28;20212;-79
2023/02/14 05:36:15;;;;;;;19.10;8.93;;;;;;;2.51;100.00;102863.28;5042364;28;20216;-77
2023/02/14 05:38:42;;;;;;;18.47;8.87;;;;;;;2.52;100.00;102861.63;5018035;28;20504;-79
2023/02/14 05:41:08;;;;;;;17.03;9.13;;;;;;;2.51;100.00;102868.44;5038314;28;20200;-78
2023/02/14 05:43:35;;;;;;;20.63;8.53;;;;;;;2.50;100.00;102864.13;5027866;28;20203;-79
2023/02/14 05:46:01;;;;;;;18.13;8.57;;;;;;;2.49;100.00;102866.63;5028035;28;20293;-78
2023/02/14 05:48:28;;;;;;;25.30;9.60;;;;;;;2.50;100.00;102874.41;5026797;28;20222;-76
2023/02/14 05:50:54;;;;;;;17.67;9.27;;;;;;;2.50;100.00;102873.53;5023335;28;20215;-76
2023/02/14 05:53:22;;;;;;;16.37;8.63;;;;;;;2.50;100.00;102873.53;5041445;28;20218;-76
2023/02/14 05:55:49;;;;;;;17.80;8.67;;;;;;;2.50;100.00;102869.28;5020671;28;20221;-76
2023/02/14 05:58:15;;;;;;;17.43;8.43;;;;;;;2.49;100.00;102870.06;5041324;28;20220;-77
2023/02/14 06:00:41;;;;;;;21.43;9.67;;;;;;;2.48;100.00;102878.63;5040887;28;20699;-76
2023/02/14 06:03:08;;;;;;;25.53;12.17;;;;;;;2.47;100.00;102875.16;5041427;28;20664;-79
2023/02/14 06:05:34;;;;;;;19.53;9.43;;;;;;;2.48;100.00;102876.06;5044376;28;20195;-78
2023/02/14 06:08:00;;;;;;;29.13;13.07;;;;;;;2.49;100.00;102877.81;5024533;28;20223;-77
2023/02/14 06:10:28;;;;;;;33.57;15.30;;;;;;;2.50;100.00;102878.66;5044945;28;20733;-76
2023/02/14 06:12:55;;;;;;;30.50;12.63;;;;;;;2.50;100.00;102878.66;5023682;28;20631;-76
2023/02/14 06:15:21;;;;;;;22.00;10.47;;;;;;;2.49;100.00;102877.81;5030663;28;20557;-76
2023/02/14 06:17:51;;;;;;;21.37;9.93;;;;;;;2.49;100.00;102889.81;5027817;28;20222;-76
2023/02/14 06:20:17;;;;;;;22.63;10.90;;;;;;;2.49;100.00;102894.97;5032919;28;20205;-78
2023/02/14 06:22:44;;;;;;;23.20;10.47;;;;;;;2.47;100.00;102893.19;5046298;28;20207;-78
2023/02/14 06:25:10;;;;;;;26.43;10.27;;;;;;;2.47;100.00;102894.88;5044261;28;20203;-76
2023/02/14 06:27:38;;;;;;;18.90;8.70;;;;;;;2.49;100.00;102895.81;5026050;28;20231;-76
2023/02/14 06:30:05;;;;;;;22.83;11.00;;;;;;;2.48;100.00;102891.50;5040835;28;20196;-77
2023/02/14 06:32:34;;;;;;;23.27;11.60;;;;;;;2.49;100.00;102902.69;5039814;28;20201;-77
2023/02/14 06:35:03;;;;;;;19.50;10.13;;;;;;;2.49;100.00;102895.81;5041680;28;20203;-76
2023/02/14 06:37:29;;;;;;;21.07;10.50;;;;;;;2.50;100.00;102891.53;5044566;28;20305;-77
2023/02/14 06:39:56;;;;;;;17.70;9.97;;;;;;;2.50;100.00;102900.19;5024983;28;20206;-76
2023/02/14 06:42:22;;;;;;;18.43;9.23;;;;;;;2.52;100.00;102902.81;5028959;28;20206;-76
2023/02/14 06:44:50;;;;;;;20.10;9.30;;;;;;;2.53;100.00;102897.72;5027220;28;20211;-76
2023/02/14 06:47:18;;;;;;;21.37;9.43;;;;;;;2.54;100.00;102896.91;5041916;28;20216;-76
2023/02/14 06:49:44;;;;;;;25.07;10.67;;;;;;;2.57;100.00;102893.56;5031714;28;20299;-75
2023/02/14 06:52:11;;;;;;;19.33;10.27;;;;;;;2.57;100.00;102896.16;5042349;28;20209;-76
2023/02/14 06:54:37;;;;;;;21.67;10.37;;;;;;;2.58;100.00;102910.81;5024018;28;20211;-76
2023/02/14 06:57:04;;;;;;;20.87;9.93;;;;;;;2.58;100.00;102905.66;5028583;28;20224;-77
2023/02/14 06:59:30;;;;;;;24.83;11.80;;;;;;;2.58;100.00;102900.50;5051128;28;20575;-77
2023/02/14 07:01:58;;;;;;;21.60;11.00;;;;;;;2.59;100.00;102897.13;5047714;28;20565;-76
2023/02/14 07:04:24;;;;;;;17.63;9.03;;;;;;;2.59;100.00;102898.00;5037843;28;20202;-76
2023/02/14 07:06:51;;;;;;;24.00;11.03;;;;;;;2.60;100.00;102896.28;5031164;28;21043;-76
2023/02/14 07:09:17;;;;;;;18.90;10.07;;;;;;;2.62;100.00;102904.94;5045560;28;20203;-76
2023/02/14 07:11:44;;;;;;;25.37;11.37;;;;;;;2.63;100.00;102902.44;5044131;28;20202;-76
2023/02/14 07:14:11;;;;;;;22.20;11.17;;;;;;;2.65;100.00;102910.25;5029300;28;20196;-76
2023/02/14 07:16:37;;;;;;;21.90;11.33;;;;;;;2.67;100.00;102905.16;5029821;28;20215;-76
2023/02/14 07:19:06;;;;;;;22.93;11.57;;;;;;;2.69;100.00;102900.94;5024483;28;20206;-76
2023/02/14 07:21:32;;;;;;;22.77;12.37;;;;;;;2.72;100.00;102895.94;5040430;28;20189;-76
2023/02/14 07:23:58;;;;;;;22.43;12.27;;;;;;;2.74;100.00;102899.47;5048498;28;20207;-76
2023/02/14 07:26:25;;;;;;;25.30;12.40;;;;;;;2.77;100.00;102897.88;5024163;28;20568;-76
2023/02/14 07:28:52;;;;;;;29.10;12.47;;;;;;;2.79;100.00;102898.81;5040717;28;20255;-76
2023/02/14 07:31:21;;;;;;;27.37;13.90;;;;;;;2.83;100.00;102894.69;5041496;28;20235;-75
2023/02/14 07:33:47;;;;;;;23.63;12.60;;;;;;;2.87;100.00;102896.59;5037857;28;20282;-76
2023/02/14 07:36:15;;;;;;;24.57;12.53;;;;;;;2.88;100.00;102893.19;5043151;28;20219;-76
2023/02/14 07:38:41;;;;;;;23.83;12.40;;;;;;;2.93;100.00;102895.97;5047350;28;20221;-76
2023/02/14 07:41:08;;;;;;;28.17;13.50;;;;;;;2.95;100.00;102895.19;5017774;28;20361;-75
2023/02/14 07:43:34;;;;;;;24.30;12.53;;;;;;;2.97;100.00;102898.75;5032148;28;20306;-75
2023/02/14 07:46:01;;;;;;;22.13;11.73;;;;;;;3.02;100.00;102896.34;5034673;28;20696;-76
2023/02/14 07:48:27;;;;;;;21.83;10.60;;;;;;;3.05;100.00;102900.75;5018971;28;20223;-75
2023/02/14 07:50:56;;;;;;;24.73;11.97;;;;;;;3.08;100.00;102895.69;5047263;28;20206;-76
2023/02/14 07:53:24;;;;;;;27.27;12.13;;;;;;;3.12;100.00;102902.75;5029823;28;20199;-75
2023/02/14 07:55:52;;;;;;;36.30;18.60;;;;;;;3.16;100.00;102902.94;5046083;28;20964;-76
2023/02/14 07:58:19;;;;;;;28.97;15.10;;;;;;;3.20;100.00;102901.34;5035236;28;20236;-77
2023/02/14 08:00:46;;;;;;;21.97;11.57;;;;;;;3.23;100.00;102901.50;5022145;28;20292;-75
2023/02/14 08:03:12;;;;;;;24.03;11.17;;;;;;;3.28;100.00;102907.72;5046959;28;20200;-75
2023/02/14 08:05:39;;;;;;;26.60;11.50;;;;;;;3.31;100.00;102912.13;5044150;28;20682;-76
2023/02/14 08:08:06;;;;;;;25.43;11.67;;;;;;;3.34;100.00;102910.56;5042180;28;20731;-75
2023/02/14 08:10:33;;;;;;;21.43;10.60;;;;;;;3.37;100.00;102918.38;5040263;28;20198;-75
2023/02/14 08:12:59;;;;;;;24.60;13.60;;;;;;;3.40;100.00;102917.66;5037899;28;20198;-75
2023/02/14 08:18:10;;;;;;;23.27;11.87;;;;;;;3.47;100.00;102923.94;5043915;28;20215;-75
2023/02/14 08:20:36;;;;;;;22.03;11.77;;;;;;;3.48;100.00;102931.72;5047286;28;20205;-75
2023/02/14 08:23:03;;;;;;;20.90;10.83;;;;;;;3.51;100.00;102930.97;5022312;28;20207;-75
2023/02/14 08:25:31;;;;;;;19.23;9.93;;;;;;;3.53;100.00;102926.75;5042257;28;20215;-75
2023/02/14 08:28:01;;;;;;;19.73;10.57;;;;;;;3.58;100.00;102930.41;5042528;28;20278;-75
2023/02/14 08:30:29;;;;;;;19.70;10.83;;;;;;;3.58;100.00;102933.84;5026697;28;20891;-75
2023/02/14 08:32:55;;;;;;;21.83;10.63;;;;;;;3.62;100.00;102928.81;5044736;28;20207;-76
2023/02/14 08:35:22;;;;;;;17.97;9.77;;;;;;;3.64;100.00;102927.16;5050406;28;20210;-75
2023/02/14 08:37:48;;;;;;;23.97;11.27;;;;;;;3.65;100.00;102919.50;5051656;28;20234;-75
2023/02/14 08:40:15;;;;;;;21.37;10.10;;;;;;;3.67;100.00;102924.72;5019522;28;20196;-75
2023/02/14 08:42:41;;;;;;;18.90;10.07;;;;;;;3.70;100.00;102924.84;5048672;28;20202;-76
2023/02/14 08:45:09;;;;;;;23.43;10.63;;;;;;;3.74;100.00;102929.28;5051578;28;20202;-76
2023/02/14 08:47:37;;;;;;;17.60;9.80;;;;;;;3.76;100.00;102933.72;5043032;28;20219;-75
2023/02/14 08:50:04;;;;;;;20.13;9.57;;;;;;;3.80;100.00;102926.97;5023712;28;20199;-75
2023/02/14 08:52:31;;;;;;;19.83;10.07;;;;;;;3.77;100.00;102934.59;5038263;28;20195;-75
2023/02/14 08:54:57;;;;;;;19.47;9.63;;;;;;;3.79;100.00;102940.69;5028565;28;20218;-75
2023/02/14 08:57:24;;;;;;;19.13;10.57;;;;;;;3.85;100.00;102937.44;5037357;28;20226;-75
2023/02/14 08:59:50;;;;;;;20.50;10.37;;;;;;;3.87;100.00;102944.44;5037287;28;20572;-75
2023/02/14 09:02:18;;;;;;;18.40;9.43;;;;;;;3.90;100.00;102943.66;5040328;28;20200;-75
2023/02/14 09:04:44;;;;;;;17.20;8.93;;;;;;;3.90;100.00;102949.69;5045929;28;20560;-74
2023/02/14 09:07:11;;;;;;;19.80;9.77;;;;;;;3.91;100.00;102943.72;5035323;28;20215;-76
2023/02/14 09:09:37;;;;;;;21.80;10.93;;;;;;;3.92;100.00;102945.50;5049839;28;20285;-75
2023/02/14 09:12:05;;;;;;;20.07;9.97;;;;;;;3.94;100.00;102942.94;5020668;28;20203;-75
2023/02/14 09:14:35;;;;;;;14.60;7.93;;;;;;;3.97;100.00;102941.41;5021154;28;20263;-75
2023/02/14 09:17:04;;;;;;;17.50;8.83;;;;;;;4.02;100.00;102941.56;5046188;28;20230;-75
2023/02/14 09:19:32;;;;;;;18.40;8.90;;;;;;;4.04;100.00;102945.06;5047522;28;20210;-76
2023/02/14 09:21:59;;;;;;;15.30;8.60;;;;;;;4.05;100.00;102951.13;5037912;28;20786;-75
2023/02/14 09:24:25;;;;;;;21.23;9.23;;;;;;;4.06;100.00;102953.75;5031912;28;20203;-76
2023/02/14 09:26:52;;;;;;;18.53;9.13;;;;;;;4.05;100.00;102954.59;5032696;28;20220;-75
2023/02/14 09:29:18;;;;;;;18.57;8.83;;;;;;;4.07;100.00;102955.53;5039878;28;20641;-75
2023/02/14 09:31:45;;;;;;;16.53;9.33;;;;;;;4.09;100.00;102948.72;5053642;28;20210;-75
2023/02/14 09:36:57;;;;;;;22.43;10.03;;;;;;;4.11;100.00;102957.38;5032354;28;20230;-75
2023/02/14 09:39:23;;;;;;;22.17;9.03;;;;;;;4.13;100.00;102950.59;5050673;28;20200;-75
2023/02/14 09:42:04;;;;;;;18.60;9.53;;;;;;;4.10;100.00;102955.66;5043175;28;20664;-75
2023/02/14 09:44:36;;;;;;;17.93;8.57;;;;;;;4.13;100.00;102955.75;5031631;28;20210;-75
2023/02/14 09:47:11;;;;;;;16.97;8.90;;;;;;;4.17;100.00;102957.63;5044013;28;20251;-75
2023/02/14 09:49:39;;;;;;;18.60;8.67;;;;;;;4.20;100.00;102959.44;5031875;28;20280;-75
2023/02/14 09:52:12;;;;;;;16.00;8.47;;;;;;;4.21;100.00;102957.75;5030679;28;20250;-76
2023/02/14 09:54:42;;;;;;;17.07;8.60;;;;;;;4.25;100.00;102954.44;5044881;28;20211;-74
2023/02/14 09:57:18;;;;;;;16.27;9.03;;;;;;;4.25;100.00;102957.91;5027096;28;20664;-75
2023/02/14 09:59:52;;;;;;;20.30;9.30;;;;;;;4.24;100.00;102955.25;5034093;28;20199;-74
2023/02/14 10:02:38;;;;;;;20.57;9.70;;;;;;;4.29;100.00;102956.31;5036011;28;20227;-76
2023/02/14 10:05:12;;;;;;;17.47;9.47;;;;;;;4.34;100.00;102959.94;5047858;28;20243;-75
2023/02/14 10:07:53;;;;;;;18.83;8.63;;;;;;;4.32;100.00;102957.31;5042383;28;20272;-76
2023/02/14 10:10:25;;;;;;;19.03;9.47;;;;;;;4.29;100.00;102959.81;5045018;28;20191;-75
2023/02/14 10:12:56;;;;;;;32.23;16.07;;;;;;;4.29;100.00;102964.06;5038359;28;20598;-75
2023/02/14 10:15:26;;;;;;;30.93;15.87;;;;;;;4.34;100.00;102965.13;5045832;28;20302;-75
2023/02/14 10:17:57;;;;;;;19.27;10.03;;;;;;;4.32;100.00;102962.47;5028912;28;20310;-75
2023/02/14 10:20:28;;;;;;;16.53;9.17;;;;;;;4.30;100.00;102965.84;5038276;28;20204;-75
2023/02/14 10:23:05;;;;;;;21.50;9.93;;;;;;;4.32;100.00;102959.88;5048489;28;20286;-75
2023/02/14 10:25:40;;;;;;;16.43;9.27;;;;;;;4.35;100.00;102961.72;5044794;28;20566;-74
2023/02/14 10:28:11;;;;;;;22.17;10.00;;;;;;;4.38;100.00;102966.09;5033671;28;20222;-75
2023/02/14 10:30:39;;;;;;;16.03;8.67;;;;;;;4.41;100.00;102958.47;5049101;28;20195;-76
2023/02/14 10:33:13;;;;;;;20.97;10.07;;;;;;;4.44;100.00;102951.72;5036524;28;20212;-75
2023/02/14 10:35:46;;;;;;;17.00;8.63;;;;;;;4.45;100.00;102950.91;5060104;28;20203;-75
2023/02/14 10:38:33;;;;;;;16.07;8.97;;;;;;;4.43;100.00;102957.69;5043667;28;20211;-75
2023/02/14 10:41:23;;;;;;;16.63;8.93;;;;;;;4.46;100.00;102949.19;5045863;28;20215;-75
2023/02/14 10:43:59;;;;;;;15.13;8.37;;;;;;;4.46;100.00;102954.38;5031141;28;20207;-76
2023/02/14 10:46:34;;;;;;;17.50;8.53;;;;;;;4.50;100.00;102945.88;5043853;28;20219;-76
2023/02/14 10:49:18;;;;;;;15.10;8.13;;;;;;;4.53;100.00;102949.47;5047387;28;20567;-75
2023/02/14 10:51:51;;;;;;;15.03;7.80;;;;;;;4.57;100.00;102949.56;5041529;28;20556;-75
2023/02/14 10:54:22;;;;;;;17.20;8.73;;;;;;;4.59;100.00;102943.66;5041498;28;20204;-76
2023/02/14 10:56:53;;;;;;;16.03;9.37;;;;;;;4.63;100.00;102954.97;5039592;28;20229;-75
2023/02/14 10:59:23;;;;;;;18.13;8.73;;;;;;;4.66;100.00;102943.03;5027138;28;20287;-76
2023/02/14 11:01:53;;;;;;;18.30;9.97;;;;;;;4.65;100.00;102951.59;5039391;28;20275;-76
2023/02/14 11:04:20;;;;;;;16.37;8.93;;;;;;;4.67;100.00;102947.38;5028116;28;20676;-76
2023/02/14 11:06:48;;;;;;;15.10;8.90;;;;;;;4.66;100.00;102952.47;5034792;28;20198;-75
2023/02/14 11:09:14;;;;;;;16.80;8.20;;;;;;;4.64;100.00;102943.81;5036666;28;20196;-76
2023/02/14 11:11:46;;;;;;;16.93;9.27;;;;;;;4.73;100.00;102934.69;5050899;28;20208;-76
2023/02/14 11:14:22;;;;;;;15.73;8.60;;;;;;;4.70;100.00;102934.56;5049486;28;20195;-76
2023/02/14 11:16:51;;;;;;;17.63;9.00;;;;;;;4.71;100.00;102935.44;5035343;28;22062;-76
2023/02/14 11:19:22;;;;;;;18.07;8.83;;;;;;;4.76;100.00;102938.19;5042677;28;20710;-76
2023/02/14 11:21:51;;;;;;;17.33;8.83;;;;;;;4.83;100.00;102932.41;5030974;28;20217;-76
2023/02/14 11:24:19;;;;;;;17.87;9.63;;;;;;;4.85;100.00;102923.00;5026221;28;20211;-76
2023/02/14 11:26:51;;;;;;;18.33;9.20;;;;;;;4.82;100.00;102928.94;5029045;28;20199;-75
2023/02/14 11:29:25;;;;;;;20.73;9.83;;;;;;;4.88;100.00;102928.28;5044717;28;20203;-76
2023/02/14 11:31:51;;;;;;;20.23;9.40;;;;;;;4.97;100.00;102922.53;5043682;28;20231;-76
2023/02/14 11:34:35;;;;;;;16.83;9.27;;;;;;;5.00;100.00;102920.06;5038607;28;20200;-76
2023/02/14 11:37:03;;;;;;;22.00;9.97;;;;;;;5.06;100.00;102918.53;5035852;28;20251;-76
2023/02/14 11:39:32;;;;;;;21.83;9.57;;;;;;;5.11;100.00;102910.94;5032004;28;20644;-76
2023/02/14 11:42:03;;;;;;;16.17;9.83;;;;;;;5.12;100.00;102921.34;5034311;28;20675;-76
2023/02/14 11:44:31;;;;;;;18.37;9.97;;;;;;;5.09;100.00;102921.22;5026439;28;20254;-75